createdAt,value
2018-07-05T00:00:21.433Z,11.07
2018-07-05T00:03:01.855Z,12.03
2018-07-05T00:05:42.268Z,10.53
2018-07-05T00:08:22.773Z,8.60
2018-07-05T00:10:57.212Z,6.03
2018-07-05T00:13:37.784Z,6.93
2018-07-05T00:16:18.100Z,5.90
2018-07-05T00:18:58.466Z,5.83
2018-07-05T00:21:38.800Z,7.13
2018-07-05T00:24:19.100Z,6.87
2018-07-05T00:26:59.581Z,6.20
2018-07-05T00:29:40.161Z,7.23
2018-07-05T00:32:20.504Z,5.83
2018-07-05T00:35:01.113Z,5.90
2018-07-05T00:37:41.477Z,5.63
2018-07-05T00:40:22.174Z,6.80
2018-07-05T00:42:56.685Z,5.93
2018-07-05T00:45:36.987Z,5.93
2018-07-05T00:48:17.336Z,7.33
2018-07-05T00:50:57.693Z,7.57
2018-07-05T00:53:38.064Z,6.33
2018-07-05T00:56:18.593Z,6.63
2018-07-05T00:58:58.977Z,6.07
2018-07-05T01:01:39.564Z,6.43
2018-07-05T01:04:19.829Z,6.70
2018-07-05T01:07:00.050Z,5.33
2018-07-05T01:09:34.420Z,11.80
2018-07-05T01:12:14.740Z,12.20
2018-07-05T01:14:55.156Z,6.97
2018-07-05T01:17:35.892Z,6.20
2018-07-05T01:20:16.133Z,10.60
2018-07-05T01:22:56.428Z,8.00
2018-07-05T01:25:36.830Z,7.00
2018-07-05T01:28:17.263Z,7.47
2018-07-05T01:30:57.648Z,11.03
2018-07-05T01:33:38.463Z,7.00
2018-07-05T01:36:19.288Z,8.47
2018-07-05T01:38:59.836Z,6.67
2018-07-05T01:41:40.197Z,8.97
2018-07-05T01:44:20.652Z,8.97
2018-07-05T01:47:01.041Z,6.03
2018-07-05T01:49:35.623Z,7.40
2018-07-05T01:52:17.276Z,6.67
2018-07-05T01:54:57.748Z,6.43
2018-07-05T01:57:38.188Z,11.30
2018-07-05T02:00:18.537Z,7.17
2018-07-05T02:02:53.504Z,7.60
2018-07-05T02:05:34.996Z,11.93
2018-07-05T02:08:15.473Z,12.63
2018-07-05T02:10:55.822Z,8.00
2018-07-05T02:13:36.260Z,6.20
2018-07-05T02:16:16.793Z,7.00
2018-07-05T02:18:57.187Z,6.57
2018-07-05T02:21:37.889Z,6.97
2018-07-05T02:24:18.216Z,8.87
2018-07-05T02:26:58.646Z,7.40
2018-07-05T02:29:39.049Z,7.03
2018-07-05T02:32:19.370Z,6.40
2018-07-05T02:34:59.778Z,6.80
2018-07-05T02:37:46.265Z,8.50
2018-07-05T02:40:26.728Z,8.97
2018-07-05T02:43:07.156Z,6.23
2018-07-05T02:45:47.831Z,7.20
2018-07-05T02:48:28.420Z,8.60
2018-07-05T02:51:08.896Z,7.80
2018-07-05T02:53:49.889Z,12.03
2018-07-05T02:56:30.291Z,7.60
2018-07-05T02:59:10.708Z,6.97
2018-07-05T03:01:51.118Z,7.93
2018-07-05T03:04:25.524Z,7.00
2018-07-05T03:07:05.793Z,7.20
2018-07-05T03:09:46.307Z,8.43
2018-07-05T03:12:26.584Z,7.00
2018-07-05T03:15:06.881Z,6.87
2018-07-05T03:17:47.208Z,7.90
2018-07-05T03:20:27.690Z,7.60
2018-07-05T03:23:08.196Z,8.00
2018-07-05T03:25:48.957Z,8.90
2018-07-05T03:28:29.412Z,8.33
2018-07-05T03:31:09.933Z,14.13
2018-07-05T03:33:50.245Z,8.23
2018-07-05T03:36:30.560Z,10.40
2018-07-05T03:39:11.217Z,10.73
2018-07-05T03:41:52.113Z,9.30
2018-07-05T03:44:32.472Z,15.97
2018-07-05T03:47:13.081Z,8.20
2018-07-05T03:49:53.508Z,9.07
2018-07-05T03:52:33.829Z,10.20
2018-07-05T03:55:14.173Z,8.30
2018-07-05T03:57:55.005Z,8.00
2018-07-05T04:00:35.224Z,8.83
2018-07-05T04:03:15.700Z,8.73
2018-07-05T04:05:56.090Z,7.57
2018-07-05T04:08:36.540Z,8.73
2018-07-05T04:11:16.860Z,9.53
2018-07-05T04:13:57.273Z,8.93
2018-07-05T04:16:37.445Z,9.93
2018-07-05T04:19:17.865Z,8.63
2018-07-05T04:21:58.352Z,12.63
2018-07-05T04:24:38.838Z,16.47
2018-07-05T04:27:19.334Z,17.63
2018-07-05T04:30:00.122Z,12.53
2018-07-05T04:32:40.409Z,11.93
2018-07-05T04:35:20.909Z,18.83
2018-07-05T04:38:01.448Z,23.83
2018-07-05T04:40:42.205Z,20.50
2018-07-05T04:43:22.627Z,15.43
2018-07-05T04:46:03.485Z,17.90
2018-07-05T04:48:43.869Z,24.90
2018-07-05T04:51:24.183Z,24.03
2018-07-05T04:54:04.525Z,19.93
2018-07-05T04:56:44.997Z,26.47
2018-07-05T04:59:25.403Z,16.63
2018-07-05T05:02:05.913Z,16.23
2018-07-05T05:04:46.284Z,15.20
2018-07-05T05:07:26.618Z,13.50
2018-07-05T05:10:07.197Z,17.30
2018-07-05T05:12:47.565Z,15.23
2018-07-05T05:15:28.254Z,15.00
2018-07-05T05:18:09.001Z,13.73
2018-07-05T05:20:49.579Z,14.70
2018-07-05T05:23:30.093Z,18.10
2018-07-05T05:26:10.499Z,14.80
2018-07-05T05:28:50.853Z,14.70
2018-07-05T05:31:31.201Z,21.97
2018-07-05T05:34:11.977Z,17.47
2018-07-05T05:36:52.379Z,17.93
2018-07-05T05:39:32.745Z,16.33
2018-07-05T05:42:13.241Z,13.63
2018-07-05T05:44:53.680Z,15.53
2018-07-05T05:47:28.205Z,12.57
2018-07-05T05:50:08.920Z,17.27
2018-07-05T05:52:49.220Z,13.93
2018-07-05T05:55:31.819Z,13.10
2018-07-05T05:58:12.325Z,14.53
2018-07-05T06:00:52.847Z,20.50
2018-07-05T06:03:33.190Z,19.40
2018-07-05T06:06:14.267Z,12.00
2018-07-05T06:08:54.594Z,16.20
2018-07-05T06:11:36.508Z,11.60
2018-07-05T06:14:16.753Z,9.60
2018-07-05T06:16:57.820Z,10.93
2018-07-05T06:19:38.314Z,16.57
2018-07-05T06:22:18.885Z,15.57
2018-07-05T06:24:59.223Z,15.17
2018-07-05T06:27:39.611Z,11.70
2018-07-05T06:30:21.104Z,11.10
2018-07-05T06:33:01.450Z,17.57
2018-07-05T06:35:43.726Z,14.17
2018-07-05T06:38:24.830Z,18.83
2018-07-05T06:41:07.980Z,12.27
2018-07-05T06:43:49.428Z,10.90
2018-07-05T06:46:31.988Z,9.47
2018-07-05T06:49:12.352Z,9.10
2018-07-05T06:51:52.881Z,11.53
2018-07-05T06:54:33.841Z,10.03
2018-07-05T06:57:14.210Z,12.60
2018-07-05T06:59:55.364Z,8.20
2018-07-05T07:02:36.052Z,12.93
2018-07-05T07:05:18.960Z,7.63
2018-07-05T07:07:59.374Z,14.20
2018-07-05T07:10:40.308Z,8.37
2018-07-05T07:13:20.613Z,6.03
2018-07-05T07:15:55.207Z,8.90
2018-07-05T07:18:35.438Z,11.00
2018-07-05T07:21:15.713Z,9.10
2018-07-05T07:23:57.269Z,6.87
2018-07-05T07:26:38.121Z,7.80
2018-07-05T07:29:18.744Z,12.50
2018-07-05T07:31:59.383Z,8.23
2018-07-05T07:34:41.108Z,5.47
2018-07-05T07:37:21.635Z,7.20
2018-07-05T07:40:02.136Z,4.60
2018-07-05T07:42:30.808Z,4.40
2018-07-05T07:44:59.053Z,4.60
2018-07-05T07:47:27.133Z,3.00
2018-07-05T07:49:55.273Z,6.30
2018-07-05T07:52:23.332Z,7.27
2018-07-05T07:54:51.392Z,2.63
2018-07-05T07:57:21.434Z,7.30
2018-07-05T07:59:50.208Z,2.97
2018-07-05T08:02:18.321Z,3.10
2018-07-05T08:04:49.814Z,7.33
2018-07-05T08:07:18.974Z,4.00
2018-07-05T08:09:47.161Z,4.50
2018-07-05T08:12:15.640Z,4.07
2018-07-05T08:14:43.768Z,7.13
2018-07-05T08:17:11.846Z,5.57
2018-07-05T08:19:39.950Z,4.47
2018-07-05T08:22:08.037Z,3.27
2018-07-05T08:24:38.167Z,2.30
2018-07-05T08:27:06.545Z,2.50
2018-07-05T08:29:34.600Z,4.50
2018-07-05T08:32:02.652Z,3.73
2018-07-05T08:34:30.736Z,3.70
2018-07-05T08:36:58.873Z,5.23
2018-07-05T08:39:26.941Z,2.67
2018-07-05T08:41:55.047Z,3.20
2018-07-05T08:44:23.114Z,2.97
2018-07-05T08:46:51.164Z,3.00
2018-07-05T08:49:19.299Z,3.30
2018-07-05T08:51:47.364Z,7.83
2018-07-05T08:54:15.465Z,3.30
2018-07-05T08:56:43.561Z,5.10
2018-07-05T08:59:11.629Z,4.13
2018-07-05T09:01:39.700Z,3.03
2018-07-05T09:04:07.800Z,3.73
2018-07-05T09:06:35.878Z,2.60
2018-07-05T09:09:05.178Z,2.90
2018-07-05T09:11:33.673Z,5.63
2018-07-05T09:14:01.805Z,2.57
2018-07-05T09:16:29.864Z,2.60
2018-07-05T09:18:59.177Z,3.00
2018-07-05T09:21:27.245Z,3.43
2018-07-05T09:23:55.317Z,4.57
2018-07-05T09:26:23.688Z,4.40
2018-07-05T09:28:51.643Z,7.20
2018-07-05T09:31:19.755Z,5.13
2018-07-05T09:33:48.100Z,4.73
2018-07-05T09:36:16.194Z,2.33
2018-07-05T09:38:44.357Z,2.60
2018-07-05T09:41:12.441Z,2.70
2018-07-05T09:43:40.800Z,3.63
2018-07-05T09:46:09.541Z,3.13
2018-07-05T09:48:37.685Z,2.40
2018-07-05T09:51:05.821Z,3.47
2018-07-05T09:53:33.910Z,3.23
2018-07-05T09:56:02.341Z,2.53
2018-07-05T09:58:30.485Z,2.50
2018-07-05T10:00:59.282Z,3.10
2018-07-05T10:03:28.281Z,3.03
2018-07-05T10:05:56.421Z,2.67
2018-07-05T10:08:24.709Z,4.40
2018-07-05T10:10:52.998Z,2.73
2018-07-05T10:13:21.739Z,5.73
2018-07-05T10:15:51.283Z,3.07
2018-07-05T10:18:22.976Z,5.20
2018-07-05T10:20:54.382Z,2.87
2018-07-05T10:23:26.641Z,5.37
2018-07-05T10:25:57.166Z,4.60
2018-07-05T10:28:27.786Z,4.30
2018-07-05T10:31:08.749Z,7.80
2018-07-05T10:33:52.388Z,3.17
2018-07-05T10:36:23.934Z,5.57
2018-07-05T10:38:53.717Z,2.70
2018-07-05T10:41:35.117Z,3.27
2018-07-05T10:44:15.471Z,5.73
2018-07-05T10:46:56.857Z,2.53
2018-07-05T10:49:37.320Z,3.33
2018-07-05T10:52:17.799Z,5.23
2018-07-05T10:54:58.109Z,2.60
2018-07-05T10:57:38.560Z,3.23
2018-07-05T11:00:18.958Z,2.50
2018-07-05T11:02:59.437Z,2.30
2018-07-05T11:05:39.965Z,7.73
2018-07-05T11:08:14.696Z,2.43
2018-07-05T11:10:55.033Z,2.40
2018-07-05T11:13:35.662Z,4.10
2018-07-05T11:16:15.953Z,7.83
2018-07-05T11:18:56.584Z,4.07
2018-07-05T11:21:36.909Z,3.67
2018-07-05T11:24:17.596Z,4.17
2018-07-05T11:26:57.917Z,3.00
2018-07-05T11:29:32.492Z,2.60
2018-07-05T11:32:12.633Z,2.60
2018-07-05T11:34:53.305Z,6.03
2018-07-05T11:37:33.766Z,3.27
2018-07-05T11:40:14.602Z,4.93
2018-07-05T11:42:54.945Z,2.77
2018-07-05T11:45:35.237Z,2.47
2018-07-05T11:48:16.064Z,3.33
2018-07-05T11:50:56.385Z,3.63
2018-07-05T11:53:36.668Z,2.70
2018-07-05T11:56:17.665Z,2.63
2018-07-05T11:58:58.115Z,2.70
2018-07-05T12:01:38.594Z,4.47
2018-07-05T12:04:19.264Z,4.00
2018-07-05T12:06:53.671Z,3.90
2018-07-05T12:09:33.905Z,2.37
2018-07-05T12:12:14.380Z,2.43
2018-07-05T12:14:54.812Z,7.20
2018-07-05T12:17:35.124Z,1.93
2018-07-05T12:20:15.457Z,2.20
2018-07-05T12:22:49.863Z,3.30
2018-07-05T12:25:30.019Z,2.40
2018-07-05T12:28:10.581Z,4.37
2018-07-05T12:30:51.193Z,2.17
2018-07-05T12:33:31.703Z,5.10
2018-07-05T12:36:12.034Z,2.60
2018-07-05T12:38:52.733Z,5.23
2018-07-05T12:41:33.181Z,5.93
2018-07-05T12:44:14.280Z,4.07
2018-07-05T12:46:54.612Z,6.63
2018-07-05T12:49:35.620Z,6.33
2018-07-05T12:52:16.125Z,3.30
2018-07-05T12:54:56.640Z,2.60
2018-07-05T12:57:37.399Z,3.40
2018-07-05T13:00:18.266Z,2.57
2018-07-05T13:02:58.534Z,4.57
2018-07-05T13:05:38.865Z,5.10
2018-07-05T13:08:19.245Z,33.30
2018-07-05T13:11:02.818Z,7.43
2018-07-05T13:13:43.129Z,5.37
2018-07-05T13:16:23.753Z,3.20
2018-07-05T13:19:04.064Z,4.30
2018-07-05T13:21:44.521Z,8.10
2018-07-05T13:24:24.845Z,2.73
2018-07-05T13:26:59.417Z,8.47
2018-07-05T13:29:39.801Z,4.10
2018-07-05T13:32:20.419Z,3.07
2018-07-05T13:35:00.701Z,3.23
2018-07-05T13:37:41.168Z,5.87
2018-07-05T13:40:22.145Z,4.40
2018-07-05T13:43:02.557Z,6.60
2018-07-05T13:45:43.064Z,6.47
2018-07-05T13:48:23.836Z,6.43
2018-07-05T13:51:04.888Z,2.53
2018-07-05T13:53:45.392Z,4.30
2018-07-05T13:56:25.895Z,3.50
2018-07-05T13:59:06.579Z,3.23
2018-07-05T14:01:46.974Z,3.33
2018-07-05T14:04:27.847Z,9.40
2018-07-05T14:07:08.052Z,3.30
2018-07-05T14:09:48.429Z,4.67
2018-07-05T14:12:29.033Z,12.83
2018-07-05T14:15:09.425Z,14.73
2018-07-05T14:17:50.734Z,4.83
2018-07-05T14:20:35.835Z,8.07
2018-07-05T14:23:16.285Z,7.67
2018-07-05T14:25:56.828Z,10.97
2018-07-05T14:28:37.296Z,7.27
2018-07-05T14:31:17.912Z,10.87
2018-07-05T14:33:58.217Z,10.47
2018-07-05T14:36:39.219Z,5.80
2018-07-05T14:39:19.501Z,6.93
2018-07-05T14:41:59.969Z,12.03
2018-07-05T14:44:40.431Z,10.13
2018-07-05T14:47:20.920Z,13.77
2018-07-05T14:49:55.383Z,12.33
2018-07-05T14:52:36.482Z,12.17
2018-07-05T14:55:16.835Z,10.17
2018-07-05T14:57:57.329Z,8.33
2018-07-05T15:00:37.508Z,11.33
2018-07-05T15:03:18.017Z,7.40
2018-07-05T15:05:58.384Z,9.87
2018-07-05T15:08:39.093Z,15.13
2018-07-05T15:11:19.493Z,9.60
2018-07-05T15:14:00.273Z,7.73
2018-07-05T15:16:40.497Z,16.30
2018-07-05T15:19:20.874Z,11.50
2018-07-05T15:22:01.335Z,11.77
2018-07-05T15:24:42.104Z,12.60
2018-07-05T15:27:22.464Z,9.47
2018-07-05T15:30:02.772Z,11.73
2018-07-05T15:32:43.290Z,9.87
2018-07-05T15:35:23.592Z,10.07
2018-07-05T15:38:04.021Z,14.60
2018-07-05T15:40:44.893Z,10.20
2018-07-05T15:43:25.560Z,18.30
2018-07-05T15:46:06.100Z,11.37
2018-07-05T15:48:46.741Z,11.63
2018-07-05T15:51:27.141Z,14.57
2018-07-05T15:54:07.473Z,14.30
2018-07-05T15:56:48.316Z,13.50
2018-07-05T15:59:29.104Z,14.33
2018-07-05T16:02:09.798Z,11.80
2018-07-05T16:04:50.715Z,11.90
2018-07-05T16:07:31.263Z,10.17
2018-07-05T16:10:11.903Z,9.37
2018-07-05T16:12:52.797Z,10.30
2018-07-05T16:15:33.448Z,10.30
2018-07-05T16:18:15.956Z,8.60
2018-07-05T16:20:57.516Z,9.00
2018-07-05T16:23:31.895Z,8.70
2018-07-05T16:26:12.412Z,12.67
2018-07-05T16:28:53.169Z,7.90
2018-07-05T16:31:34.677Z,11.30
2018-07-05T16:34:15.363Z,15.40
2018-07-05T16:36:55.815Z,10.33
2018-07-05T16:39:36.386Z,7.00
2018-07-05T16:42:17.064Z,8.50
2018-07-05T16:44:58.505Z,4.93
2018-07-05T16:47:39.234Z,9.33
2018-07-05T16:50:20.103Z,7.87
2018-07-05T16:53:00.652Z,7.87
2018-07-05T16:55:41.393Z,9.17
2018-07-05T16:58:22.243Z,8.70
2018-07-05T17:00:57.040Z,8.67
2018-07-05T17:03:37.445Z,9.47
2018-07-05T17:06:18.572Z,16.47
2018-07-05T17:08:59.075Z,7.60
2018-07-05T17:11:34.982Z,5.47
2018-07-05T17:14:15.628Z,7.50
2018-07-05T17:16:56.531Z,7.10
2018-07-05T17:19:37.621Z,6.90
2018-07-05T17:22:18.281Z,6.27
2018-07-05T17:24:59.857Z,5.50
2018-07-05T17:27:41.649Z,5.60
2018-07-05T17:30:22.301Z,7.03
2018-07-05T17:33:04.485Z,7.07
2018-07-05T17:35:45.148Z,5.50
2018-07-05T17:38:25.865Z,6.73
2018-07-05T17:41:06.472Z,5.30
2018-07-05T17:43:43.316Z,6.03
2018-07-05T17:46:25.750Z,5.40
2018-07-05T17:49:07.730Z,8.80
2018-07-05T17:51:48.452Z,6.80
2018-07-05T17:54:29.821Z,7.37
2018-07-05T17:57:10.460Z,5.60
2018-07-05T18:00:00.584Z,5.23
2018-07-05T18:02:41.333Z,6.77
2018-07-05T18:05:23.704Z,7.43
2018-07-05T18:08:07.785Z,6.00
2018-07-05T18:10:48.685Z,7.40
2018-07-05T18:13:29.212Z,10.23
2018-07-05T18:16:09.941Z,6.83
2018-07-05T18:18:50.577Z,7.80
2018-07-05T18:21:32.500Z,7.70
2018-07-05T18:24:12.800Z,6.80
2018-07-05T18:26:47.704Z,6.13
2018-07-05T18:29:28.013Z,6.80
2018-07-05T18:32:09.610Z,5.37
2018-07-05T18:34:50.253Z,7.90
2018-07-05T18:37:24.993Z,4.93
2018-07-05T18:40:06.520Z,5.43
2018-07-05T18:42:47.045Z,5.90
2018-07-05T18:45:27.378Z,4.97
2018-07-05T18:48:07.774Z,5.70
2018-07-05T18:50:48.413Z,7.43
2018-07-05T18:53:30.250Z,4.67
2018-07-05T18:56:11.921Z,5.97
2018-07-05T18:58:53.283Z,7.00
2018-07-05T19:01:34.408Z,6.63
2018-07-05T19:04:18.025Z,5.80
2018-07-05T19:06:53.185Z,6.03
2018-07-05T19:09:36.058Z,7.83
2018-07-05T19:12:17.191Z,5.23
2018-07-05T19:14:57.829Z,7.03
2018-07-05T19:17:38.581Z,6.40
2018-07-05T19:20:19.153Z,7.30
2018-07-05T19:22:59.426Z,7.30
2018-07-05T19:28:34.795Z,8.50
2018-07-05T19:31:16.383Z,7.07
2018-07-05T19:33:58.955Z,10.97
2018-07-05T19:36:40.962Z,7.33
2018-07-05T19:39:23.763Z,8.77
2018-07-05T19:42:04.861Z,8.13
2018-07-05T19:44:47.005Z,10.27
2018-07-05T19:47:27.341Z,9.93
2018-07-05T19:50:08.529Z,7.50
2018-07-05T19:52:49.525Z,11.13
2018-07-05T19:55:30.907Z,7.10
2018-07-05T19:58:11.513Z,8.80
2018-07-05T20:00:53.013Z,9.43
2018-07-05T20:03:33.465Z,7.97
2018-07-05T20:06:08.156Z,7.10
2018-07-05T20:08:48.655Z,7.40
2018-07-05T20:11:29.340Z,7.47
2018-07-05T20:14:09.844Z,7.33
2018-07-05T20:16:51.306Z,5.27
2018-07-05T20:19:32.536Z,6.00
2018-07-05T20:22:19.857Z,5.30
2018-07-05T20:25:00.520Z,5.73
2018-07-05T20:27:41.619Z,11.73
2018-07-05T20:30:22.122Z,7.30
2018-07-05T20:33:03.151Z,5.57
2018-07-05T20:35:45.876Z,7.70
2018-07-05T20:38:26.489Z,6.70
2018-07-05T20:41:07.229Z,6.87
2018-07-05T20:43:47.510Z,6.03
2018-07-05T20:46:29.048Z,6.10
2018-07-05T20:49:11.356Z,7.33
2018-07-05T20:51:53.556Z,8.20
2018-07-05T20:54:34.373Z,8.00
2018-07-05T20:57:14.895Z,7.17
2018-07-05T20:59:55.476Z,8.00
2018-07-05T21:02:36.100Z,10.20
2018-07-05T21:05:17.809Z,9.60
2018-07-05T21:07:58.117Z,8.83
2018-07-05T21:10:38.506Z,7.73
2018-07-05T21:13:22.236Z,9.87
2018-07-05T21:16:02.663Z,6.83
2018-07-05T21:18:42.936Z,8.30
2018-07-05T21:21:23.480Z,8.20
2018-07-05T21:24:03.820Z,6.53
2018-07-05T21:26:45.062Z,8.00
2018-07-05T21:29:25.429Z,7.93
2018-07-05T21:32:05.825Z,8.07
2018-07-05T21:34:46.384Z,6.47
2018-07-05T21:37:27.048Z,7.30
2018-07-05T21:40:07.538Z,6.87
2018-07-05T21:42:49.780Z,12.33
2018-07-05T21:45:29.996Z,6.40
2018-07-05T21:48:10.567Z,10.43
2018-07-05T21:50:50.989Z,5.87
2018-07-05T21:53:31.515Z,6.27
2018-07-05T21:56:12.055Z,6.63
2018-07-05T21:58:52.405Z,5.10
2018-07-05T22:01:32.860Z,6.80
2018-07-05T22:04:13.269Z,8.23
2018-07-05T22:06:53.608Z,5.87
2018-07-05T22:09:34.237Z,8.67
2018-07-05T22:12:14.681Z,6.73
2018-07-05T22:14:55.162Z,6.07
2018-07-05T22:17:41.017Z,7.90
2018-07-05T22:20:26.701Z,5.17
2018-07-05T22:23:12.465Z,6.50
2018-07-05T22:25:58.745Z,7.13
2018-07-05T22:28:44.562Z,6.53
2018-07-05T22:31:30.759Z,4.90
2018-07-05T22:34:11.645Z,5.63
2018-07-05T22:36:51.994Z,8.00
2018-07-05T22:39:32.740Z,7.07
2018-07-05T22:42:13.141Z,10.23
2018-07-05T22:44:53.557Z,7.80
2018-07-05T22:47:33.946Z,7.30
2018-07-05T22:50:14.217Z,6.93
2018-07-05T22:52:54.501Z,6.67
2018-07-05T22:55:35.178Z,5.27
2018-07-05T22:58:15.636Z,5.43
2018-07-05T23:00:56.043Z,8.10
2018-07-05T23:03:36.556Z,6.93
2018-07-05T23:06:17.040Z,8.80
2018-07-05T23:08:57.486Z,9.87
2018-07-05T23:11:37.952Z,7.27
2018-07-05T23:14:18.665Z,6.60
2018-07-05T23:16:59.550Z,13.47
2018-07-05T23:19:40.209Z,11.30
2018-07-05T23:22:20.466Z,9.13
2018-07-05T23:25:01.925Z,9.03
2018-07-05T23:27:42.293Z,9.53
2018-07-05T23:30:22.790Z,8.10
2018-07-05T23:33:03.046Z,9.07
2018-07-05T23:35:43.500Z,9.37
2018-07-05T23:38:23.936Z,8.33
2018-07-05T23:41:04.279Z,11.57
2018-07-05T23:43:45.053Z,11.17
2018-07-05T23:46:25.852Z,8.67
2018-07-05T23:49:06.032Z,8.13
2018-07-05T23:51:46.380Z,9.67
2018-07-05T23:54:26.692Z,7.20
2018-07-05T23:57:00.970Z,8.60
2018-07-05T23:59:41.244Z,11.67
